Station Charts

 

Station Historical Data
Daily Summary for February 14, 2018 Units:  Both    English   Metric
« Previous Day
Next Day »
Daily Weekly Monthly Yearly Custom
  High: Low: Average:
Temperature: TemperatureF °F /  -17.8 °C 34.5 °F /  1.4 °C 37.5 °F /  3.1 °C
Dew Point: DewpointF °F /  -17.8 °C 32.6 °F /  0.3 °C 35.3 °F /  1.8 °C
Humidity: Humidity % 87 % 91 %
Wind Speed: WindSpeedMPH mph /  0 km/h - 0.7 mph /  1.1 km/h
Wind Gust: WindSpeedGustMPH mph /  0 km/h - -
Wind:- - SSW
Pressure: PressureIn in /  0 hPa 29.93 in /  1013.4 hPa -
Precipitation: 0.22 in /  5.59 mm    
Historical Graphs
 
 
Tabular Data for February 14, 2018
Time Temperature Dew Point Pressure Wind Wind Speed Wind Gust Humidity Rainfall Rate (Hourly)
TemperatureF °F /  -17.8 °C DewpointF °F /  -17.8 °C PressureIn in /  0 hPa Calm     Humidity % HourlyPrecipIn in /  0 mm
00:04 36.7 °F /  2.6 °C 34.3 °F /  1.3 °C 30.00 in /  1015.8 hPa Calm     91 % 0.07 in /  1.78 mm
00:09 36.5 °F /  2.5 °C 34.1 °F /  1.2 °C 30.00 in /  1015.8 hPa SW 2.3 mph /  3.7 km/h   91 % 0.08 in /  2.03 mm
00:14 36.3 °F /  2.4 °C 33.9 °F /  1.1 °C 30.00 in /  1015.8 hPa SW 4.0 mph /  6.4 km/h   91 % 0.07 in /  1.78 mm
00:19 36.3 °F /  2.4 °C 33.9 °F /  1.1 °C 30.00 in /  1015.8 hPa WSW 3.6 mph /  5.8 km/h 3.6 mph /  5.8 km/h 91 % 0.08 in /  2.03 mm
00:24 36.1 °F /  2.3 °C 33.8 °F /  1 °C 30.00 in /  1015.8 hPa SW 3.1 mph /  5 km/h 3.1 mph /  5 km/h 91 % 0.08 in /  2.03 mm
00:29 36.1 °F /  2.3 °C 34.0 °F /  1.1 °C 30.00 in /  1015.8 hPa SW 3.5 mph /  5.6 km/h 3.5 mph /  5.6 km/h 92 % 0.08 in /  2.03 mm
00:34 36.1 °F /  2.3 °C 34.0 °F /  1.1 °C 30.00 in /  1015.8 hPa SW 2.3 mph /  3.7 km/h 2.3 mph /  3.7 km/h 92 % 0.09 in /  2.29 mm
00:39 36.0 °F /  2.2 °C 33.9 °F /  1.1 °C 30.00 in /  1015.8 hPa SW 4.6 mph /  7.4 km/h 4.6 mph /  7.4 km/h 92 % 0.08 in /  2.03 mm
00:44 35.8 °F /  2.1 °C 33.7 °F /  0.9 °C 30.00 in /  1015.8 hPa WSW 2.3 mph /  3.7 km/h 2.3 mph /  3.7 km/h 92 % 0.08 in /  2.03 mm
00:49 35.8 °F /  2.1 °C 33.7 °F /  0.9 °C 30.00 in /  1015.8 hPa SW 2.3 mph /  3.7 km/h 2.3 mph /  3.7 km/h 92 % 0.09 in /  2.29 mm
00:54 35.6 °F /  2 °C 33.5 °F /  0.8 °C 30.00 in /  1015.8 hPa Calm   1.4 mph /  2.3 km/h 92 % 0.09 in /  2.29 mm
01:00 35.4 °F /  1.9 °C 33.3 °F /  0.7 °C 30.00 in /  1015.8 hPa Calm   6.0 mph /  9.7 km/h 92 % 0.00 in /  0 mm
01:05 35.4 °F /  1.9 °C 33.3 °F /  0.7 °C 30.00 in /  1015.8 hPa Calm     92 % 0.08 in /  2.03 mm
01:10 35.2 °F /  1.8 °C 33.1 °F /  0.6 °C 30.00 in /  1015.8 hPa Calm     92 % 0.07 in /  1.78 mm
01:15 35.2 °F /  1.8 °C 33.1 °F /  0.6 °C 30.00 in /  1015.8 hPa West 5.8 mph /  9.3 km/h   92 % 0.08 in /  2.03 mm
01:20 35.2 °F /  1.8 °C 33.1 °F /  0.6 °C 30.00 in /  1015.8 hPa Calm     92 % 0.07 in /  1.78 mm
01:25 35.2 °F /  1.8 °C 33.1 °F /  0.6 °C 30.00 in /  1015.8 hPa Calm     92 % 0.07 in /  1.78 mm
01:30 35.1 °F /  1.7 °C 33.0 °F /  0.6 °C 30.00 in /  1015.8 hPa Calm     92 % 0.07 in /  1.78 mm
01:35 35.1 °F /  1.7 °C 33.0 °F /  0.6 °C 30.00 in /  1015.8 hPa Calm     92 % 0.07 in /  1.78 mm
01:40 35.1 °F /  1.7 °C 33.0 °F /  0.6 °C 30.00 in /  1015.8 hPa West 2.3 mph /  3.7 km/h   92 % 0.08 in /  2.03 mm
01:46 34.9 °F /  1.6 °C 32.8 °F /  0.4 °C 30.00 in /  1015.8 hPa Calm     92 % 0.07 in /  1.78 mm
01:51 34.9 °F /  1.6 °C 32.8 °F /  0.4 °C 30.00 in /  1015.8 hPa Calm     92 % 0.07 in /  1.78 mm
01:56 34.9 °F /  1.6 °C 32.8 °F /  0.4 °C 30.00 in /  1015.8 hPa Calm     92 % 0.07 in /  1.78 mm
02:01 34.7 °F /  1.5 °C 32.6 °F /  0.3 °C 30.00 in /  1015.8 hPa SSE 2.3 mph /  3.7 km/h   92 % 0.07 in /  1.78 mm
02:06 34.7 °F /  1.5 °C 32.9 °F /  0.5 °C 29.99 in /  1015.5 hPa Calm     93 % 0.06 in /  1.52 mm
02:11 34.7 °F /  1.5 °C 32.9 °F /  0.5 °C 29.99 in /  1015.5 hPa Calm     93 % 0.07 in /  1.78 mm
02:16 34.5 °F /  1.4 °C 32.7 °F /  0.4 °C 29.99 in /  1015.5 hPa Calm     93 % 0.06 in /  1.52 mm
02:21 34.5 °F /  1.4 °C 32.7 °F /  0.4 °C 29.99 in /  1015.5 hPa SSE 2.3 mph /  3.7 km/h   93 % 0.06 in /  1.52 mm
02:26 34.7 °F /  1.5 °C 32.9 °F /  0.5 °C 29.99 in /  1015.5 hPa SE 1.2 mph /  1.9 km/h   93 % 0.05 in /  1.27 mm
02:31 34.7 °F /  1.5 °C 32.9 °F /  0.5 °C 29.99 in /  1015.5 hPa Calm     93 % 0.05 in /  1.27 mm
02:36 34.9 °F /  1.6 °C 33.1 °F /  0.6 °C 29.99 in /  1015.5 hPa Calm     93 % 0.04 in /  1.02 mm
02:41 34.9 °F /  1.6 °C 33.1 °F /  0.6 °C 29.99 in /  1015.5 hPa Calm     93 % 0.03 in /  0.76 mm
02:46 34.9 °F /  1.6 °C 33.1 °F /  0.6 °C 29.99 in /  1015.5 hPa Calm     93 % 0.02 in /  0.51 mm
02:51 34.9 °F /  1.6 °C 33.1 °F /  0.6 °C 29.98 in /  1015.1 hPa Calm     93 % 0.01 in /  0.25 mm
02:56 34.9 °F /  1.6 °C 33.1 °F /  0.6 °C 29.98 in /  1015.1 hPa Calm     93 % 0.01 in /  0.25 mm
03:01 34.9 °F /  1.6 °C 33.1 °F /  0.6 °C 29.98 in /  1015.1 hPa Calm     93 % 0.01 in /  0.25 mm
03:07 35.1 °F /  1.7 °C 33.2 °F /  0.7 °C 29.98 in /  1015.1 hPa Calm     93 % 0.01 in /  0.25 mm
03:12 35.1 °F /  1.7 °C 33.2 °F /  0.7 °C 29.98 in /  1015.1 hPa Calm     93 % 0.00 in /  0 mm
03:17 35.1 °F /  1.7 °C 33.2 °F /  0.7 °C 29.97 in /  1014.8 hPa Calm     93 % 0.00 in /  0 mm
03:22 35.1 °F /  1.7 °C 33.2 °F /  0.7 °C 29.97 in /  1014.8 hPa Calm     93 % 0.00 in /  0 mm
03:27 35.1 °F /  1.7 °C 33.2 °F /  0.7 °C 29.97 in /  1014.8 hPa Calm     93 % 0.00 in /  0 mm
03:32 35.1 °F /  1.7 °C 33.2 °F /  0.7 °C 29.97 in /  1014.8 hPa Calm     93 % 0.00 in /  0 mm
03:37 35.2 °F /  1.8 °C 33.4 °F /  0.8 °C 29.97 in /  1014.8 hPa Calm     93 % 0.00 in /  0 mm
03:42 35.2 °F /  1.8 °C 33.4 °F /  0.8 °C 29.97 in /  1014.8 hPa Calm     93 % 0.00 in /  0 mm
03:47 35.4 °F /  1.9 °C 33.6 °F /  0.9 °C 29.96 in /  1014.4 hPa Calm     93 % 0.00 in /  0 mm
03:52 35.4 °F /  1.9 °C 33.6 °F /  0.9 °C 29.96 in /  1014.4 hPa ESE 1.2 mph /  1.9 km/h   93 % 0.00 in /  0 mm
03:57 35.8 °F /  2.1 °C 34.0 °F /  1.1 °C 29.96 in /  1014.4 hPa NW 3.5 mph /  5.6 km/h   93 % 0.01 in /  0.25 mm
04:02 35.8 °F /  2.1 °C 34.0 °F /  1.1 °C 29.96 in /  1014.4 hPa Calm     93 % 0.01 in /  0.25 mm
04:07 36.0 °F /  2.2 °C 34.1 °F /  1.2 °C 29.96 in /  1014.4 hPa SSW 2.3 mph /  3.7 km/h   93 % 0.01 in /  0.25 mm
04:12 36.1 °F /  2.3 °C 34.3 °F /  1.3 °C 29.96 in /  1014.4 hPa South 1.2 mph /  1.9 km/h   93 % 0.01 in /  0.25 mm
04:18 36.1 °F /  2.3 °C 34.3 °F /  1.3 °C 29.96 in /  1014.4 hPa Calm     93 % 0.01 in /  0.25 mm
04:23 36.1 °F /  2.3 °C 34.3 °F /  1.3 °C 29.96 in /  1014.4 hPa Calm     93 % 0.01 in /  0.25 mm
04:28 36.3 °F /  2.4 °C 34.5 °F /  1.4 °C 29.96 in /  1014.4 hPa ESE 2.3 mph /  3.7 km/h   93 % 0.01 in /  0.25 mm
04:33 36.3 °F /  2.4 °C 34.5 °F /  1.4 °C 29.95 in /  1014.1 hPa ESE 1.2 mph /  1.9 km/h   93 % 0.01 in /  0.25 mm
04:38 36.3 °F /  2.4 °C 34.5 °F /  1.4 °C 29.95 in /  1014.1 hPa NE 4.6 mph /  7.4 km/h   93 % 0.01 in /  0.25 mm
04:43 36.3 °F /  2.4 °C 34.5 °F /  1.4 °C 29.95 in /  1014.1 hPa Calm     93 % 0.01 in /  0.25 mm
04:48 36.3 °F /  2.4 °C 34.5 °F /  1.4 °C 29.95 in /  1014.1 hPa Calm     93 % 0.01 in /  0.25 mm
04:53 36.3 °F /  2.4 °C 34.5 °F /  1.4 °C 29.95 in /  1014.1 hPa Calm     93 % 0.01 in /  0.25 mm
04:58 36.3 °F /  2.4 °C 34.5 °F /  1.4 °C 29.95 in /  1014.1 hPa Calm     93 % 0.00 in /  0 mm
05:03 36.3 °F /  2.4 °C 34.5 °F /  1.4 °C 29.95 in /  1014.1 hPa Calm     93 % 0.00 in /  0 mm
05:08 36.3 °F /  2.4 °C 34.5 °F /  1.4 °C 29.95 in /  1014.1 hPa Calm     93 % 0.00 in /  0 mm
05:13 36.5 °F /  2.5 °C 34.7 °F /  1.5 °C 29.95 in /  1014.1 hPa Calm     93 % 0.00 in /  0 mm
05:18 36.5 °F /  2.5 °C 34.7 °F /  1.5 °C 29.95 in /  1014.1 hPa Calm     93 % 0.00 in /  0 mm
05:23 36.5 °F /  2.5 °C 34.7 °F /  1.5 °C 29.95 in /  1014.1 hPa Calm     93 % 0.00 in /  0 mm
05:28 36.7 °F /  2.6 °C 34.8 °F /  1.6 °C 29.95 in /  1014.1 hPa Calm     93 % 0.00 in /  0 mm
05:34 36.7 °F /  2.6 °C 34.8 °F /  1.6 °C 29.94 in /  1013.8 hPa Calm     93 % 0.00 in /  0 mm
05:39 36.7 °F /  2.6 °C 34.8 °F /  1.6 °C 29.94 in /  1013.8 hPa Calm     93 % 0.00 in /  0 mm
05:44 36.9 °F /  2.7 °C 35.0 °F /  1.7 °C 29.94 in /  1013.8 hPa Calm     93 % 0.00 in /  0 mm
05:49 36.9 °F /  2.7 °C 35.0 °F /  1.7 °C 29.94 in /  1013.8 hPa ESE 2.3 mph /  3.7 km/h   93 % 0.00 in /  0 mm
05:54 36.9 °F /  2.7 °C 35.0 °F /  1.7 °C 29.94 in /  1013.8 hPa Calm     93 % 0.00 in /  0 mm
05:59 36.9 °F /  2.7 °C 35.0 °F /  1.7 °C 29.94 in /  1013.8 hPa Calm     93 % 0.00 in /  0 mm
06:04 36.9 °F /  2.7 °C 35.0 °F /  1.7 °C 29.94 in /  1013.8 hPa Calm     93 % 0.00 in /  0 mm
06:09 37.0 °F /  2.8 °C 35.2 °F /  1.8 °C 29.94 in /  1013.8 hPa Calm     93 % 0.00 in /  0 mm
06:14 37.0 °F /  2.8 °C 35.2 °F /  1.8 °C 29.94 in /  1013.8 hPa SW 4.0 mph /  6.4 km/h   93 % 0.00 in /  0 mm
06:19 37.0 °F /  2.8 °C 34.9 °F /  1.6 °C 29.93 in /  1013.4 hPa NW 5.8 mph /  9.3 km/h   92 % 0.00 in /  0 mm
06:24 37.2 °F /  2.9 °C 35.1 °F /  1.7 °C 29.93 in /  1013.4 hPa SW 6.9 mph /  11.1 km/h   92 % 0.00 in /  0 mm
06:29 37.4 °F /  3 °C 35.3 °F /  1.8 °C 29.93 in /  1013.4 hPa SSW 4.0 mph /  6.4 km/h 4.0 mph /  6.4 km/h 92 % 0.00 in /  0 mm
06:34 37.4 °F /  3 °C 35.0 °F /  1.7 °C 29.93 in /  1013.4 hPa SW 3.5 mph /  5.6 km/h 3.5 mph /  5.6 km/h 91 % 0.00 in /  0 mm
06:39 37.6 °F /  3.1 °C 35.2 °F /  1.8 °C 29.93 in /  1013.4 hPa West 3.5 mph /  5.6 km/h 3.5 mph /  5.6 km/h 91 % 0.00 in /  0 mm
06:44 37.6 °F /  3.1 °C 35.2 °F /  1.8 °C 29.93 in /  1013.4 hPa West 5.8 mph /  9.3 km/h 5.8 mph /  9.3 km/h 91 % 0.00 in /  0 mm
06:50 37.6 °F /  3.1 °C 35.2 °F /  1.8 °C 29.94 in /  1013.8 hPa North 4.6 mph /  7.4 km/h 4.6 mph /  7.4 km/h 91 % 0.00 in /  0 mm
06:55 37.6 °F /  3.1 °C 35.2 °F /  1.8 °C 29.94 in /  1013.8 hPa SW 9.2 mph /  14.8 km/h 9.2 mph /  14.8 km/h 91 % 0.00 in /  0 mm
07:00 37.6 °F /  3.1 °C 35.2 °F /  1.8 °C 29.94 in /  1013.8 hPa West 2.0 mph /  3.2 km/h 12.0 mph /  19.3 km/h 91 % 0.00 in /  0 mm
07:05 37.6 °F /  3.1 °C 35.5 °F /  1.9 °C 29.96 in /  1014.4 hPa Calm   1.8 mph /  2.9 km/h 92 % 0.00 in /  0 mm
07:10 37.6 °F /  3.1 °C 35.5 °F /  1.9 °C 29.96 in /  1014.4 hPa Calm     92 % 0.00 in /  0 mm
07:15 37.4 °F /  3 °C 35.3 °F /  1.8 °C 29.96 in /  1014.4 hPa Calm     92 % 0.00 in /  0 mm
07:20 37.4 °F /  3 °C 35.3 °F /  1.8 °C 29.97 in /  1014.8 hPa Calm     92 % 0.00 in /  0 mm
07:25 37.4 °F /  3 °C 35.3 °F /  1.8 °C 29.97 in /  1014.8 hPa NNW 2.4 mph /  3.9 km/h   92 % 0.00 in /  0 mm
07:30 37.4 °F /  3 °C 35.0 °F /  1.7 °C 29.97 in /  1014.8 hPa Calm     91 % 0.00 in /  0 mm
07:35 37.4 °F /  3 °C 35.0 °F /  1.7 °C 29.98 in /  1015.1 hPa Calm     91 % 0.00 in /  0 mm
07:40 37.6 °F /  3.1 °C 35.2 °F /  1.8 °C 29.98 in /  1015.1 hPa Calm     91 % 0.00 in /  0 mm
07:45 37.6 °F /  3.1 °C 35.2 °F /  1.8 °C 29.98 in /  1015.1 hPa Calm     91 % 0.00 in /  0 mm
07:50 37.6 °F /  3.1 °C 35.2 °F /  1.8 °C 29.99 in /  1015.5 hPa Calm     91 % 0.00 in /  0 mm
07:55 37.6 °F /  3.1 °C 35.5 °F /  1.9 °C 29.99 in /  1015.5 hPa Calm     92 % 0.00 in /  0 mm
08:00 37.6 °F /  3.1 °C 35.5 °F /  1.9 °C 29.99 in /  1015.5 hPa Calm     92 % 0.00 in /  0 mm
08:05 37.4 °F /  3 °C 35.3 °F /  1.8 °C 29.99 in /  1015.5 hPa Calm     92 % 0.00 in /  0 mm
08:11 37.4 °F /  3 °C 35.3 °F /  1.8 °C 29.99 in /  1015.5 hPa Calm     92 % 0.00 in /  0 mm
08:16 37.4 °F /  3 °C 35.0 °F /  1.7 °C 29.99 in /  1015.5 hPa Calm     91 % 0.00 in /  0 mm
08:21 37.6 °F /  3.1 °C 35.2 °F /  1.8 °C 30.00 in /  1015.8 hPa Calm     91 % 0.00 in /  0 mm
08:26 37.6 °F /  3.1 °C 35.2 °F /  1.8 °C 30.00 in /  1015.8 hPa Calm     91 % 0.00 in /  0 mm
08:31 37.6 °F /  3.1 °C 35.5 °F /  1.9 °C 30.00 in /  1015.8 hPa Calm     92 % 0.00 in /  0 mm
08:36 37.8 °F /  3.2 °C 35.4 °F /  1.9 °C 30.00 in /  1015.8 hPa Calm     91 % 0.00 in /  0 mm
08:41 37.8 °F /  3.2 °C 35.6 °F /  2 °C 30.00 in /  1015.8 hPa Calm     92 % 0.00 in /  0 mm
08:46 37.8 °F /  3.2 °C 35.1 °F /  1.7 °C 30.00 in /  1015.8 hPa Calm     90 % 0.00 in /  0 mm
08:51 37.9 °F /  3.3 °C 35.8 °F /  2.1 °C 30.00 in /  1015.8 hPa Calm     92 % 0.00 in /  0 mm
09:01 37.9 °F /  3.3 °C 35.5 °F /  1.9 °C 30.00 in /  1015.8 hPa Calm     91 % 0.00 in /  0 mm
09:06 38.1 °F /  3.4 °C 36.0 °F /  2.2 °C 30.01 in /  1016.1 hPa Calm     92 % 0.00 in /  0 mm
09:11 38.1 °F /  3.4 °C 36.0 °F /  2.2 °C 30.01 in /  1016.1 hPa Calm     92 % 0.00 in /  0 mm
09:16 38.1 °F /  3.4 °C 35.7 °F /  2.1 °C 30.01 in /  1016.1 hPa WSW 2.3 mph /  3.7 km/h   91 % 0.00 in /  0 mm
09:21 38.1 °F /  3.4 °C 35.7 °F /  2.1 °C 30.01 in /  1016.1 hPa Calm     91 % 0.00 in /  0 mm
09:26 38.5 °F /  3.6 °C 36.4 °F /  2.4 °C 30.01 in /  1016.1 hPa Calm     92 % 0.00 in /  0 mm
09:32 38.5 °F /  3.6 °C 36.4 °F /  2.4 °C 30.02 in /  1016.5 hPa Calm     92 % 0.02 in /  0.51 mm
09:37 38.7 °F /  3.7 °C 36.3 °F /  2.4 °C 30.02 in /  1016.5 hPa SSE 2.3 mph /  3.7 km/h   91 % 0.02 in /  0.51 mm
09:42 38.7 °F /  3.7 °C 36.3 °F /  2.4 °C 30.02 in /  1016.5 hPa Calm     91 % 0.02 in /  0.51 mm
09:47 38.7 °F /  3.7 °C 36.3 °F /  2.4 °C 30.03 in /  1016.8 hPa WSW 3.5 mph /  5.6 km/h   91 % 0.02 in /  0.51 mm
09:52 38.7 °F /  3.7 °C 36.3 °F /  2.4 °C 30.03 in /  1016.8 hPa SE 1.2 mph /  1.9 km/h   91 % 0.02 in /  0.51 mm
09:57 38.7 °F /  3.7 °C 36.5 °F /  2.5 °C 30.03 in /  1016.8 hPa Calm     92 % 0.02 in /  0.51 mm
10:02 38.7 °F /  3.7 °C 36.3 °F /  2.4 °C 30.03 in /  1016.8 hPa West 2.3 mph /  3.7 km/h   91 % 0.02 in /  0.51 mm
10:07 38.5 °F /  3.6 °C 36.4 °F /  2.4 °C 30.03 in /  1016.8 hPa SSW 2.3 mph /  3.7 km/h   92 % 0.02 in /  0.51 mm
10:12 38.7 °F /  3.7 °C 36.5 °F /  2.5 °C 30.03 in /  1016.8 hPa Calm     92 % 0.02 in /  0.51 mm
10:17 38.7 °F /  3.7 °C 36.5 °F /  2.5 °C 30.03 in /  1016.8 hPa Calm     92 % 0.02 in /  0.51 mm
10:22 38.7 °F /  3.7 °C 36.3 °F /  2.4 °C 30.03 in /  1016.8 hPa Calm     91 % 0.02 in /  0.51 mm
10:27 38.7 °F /  3.7 °C 36.5 °F /  2.5 °C 30.03 in /  1016.8 hPa Calm     92 % 0.02 in /  0.51 mm
10:32 38.7 °F /  3.7 °C 36.5 °F /  2.5 °C 30.04 in /  1017.2 hPa Calm     92 % 0.00 in /  0 mm
10:38 38.8 °F /  3.8 °C 36.4 °F /  2.4 °C 30.04 in /  1017.2 hPa Calm     91 % 0.00 in /  0 mm
10:43 38.8 °F /  3.8 °C 36.4 °F /  2.4 °C 30.04 in /  1017.2 hPa SW 4.6 mph /  7.4 km/h   91 % 0.00 in /  0 mm
10:48 38.8 °F /  3.8 °C 36.7 °F /  2.6 °C 30.05 in /  1017.5 hPa SSW 4.6 mph /  7.4 km/h   92 % 0.00 in /  0 mm
10:53 38.8 °F /  3.8 °C 36.7 °F /  2.6 °C 30.05 in /  1017.5 hPa Calm     92 % 0.00 in /  0 mm
10:58 39.0 °F /  3.9 °C 36.6 °F /  2.6 °C 30.05 in /  1017.5 hPa Calm     91 % 0.00 in /  0 mm
11:00 39.0 °F /  3.9 °C 36.9 °F /  2.7 °C 30.05 in /  1017.5 hPa Calm     92 % 0.00 in /  0 mm
11:05 39.2 °F /  4 °C 37.1 °F /  2.8 °C 30.05 in /  1017.5 hPa Calm     92 % 0.00 in /  0 mm
11:10 39.2 °F /  4 °C 37.1 °F /  2.8 °C 30.05 in /  1017.5 hPa Calm     92 % 0.00 in /  0 mm
11:15 39.4 °F /  4.1 °C 37.2 °F /  2.9 °C 30.05 in /  1017.5 hPa Calm     92 % 0.00 in /  0 mm
11:20 39.4 °F /  4.1 °C 37.2 °F /  2.9 °C 30.05 in /  1017.5 hPa Calm     92 % 0.00 in /  0 mm
11:25 39.6 °F /  4.2 °C 37.4 °F /  3 °C 30.05 in /  1017.5 hPa Calm     92 % 0.00 in /  0 mm
11:30 39.4 °F /  4.1 °C 36.7 °F /  2.6 °C 30.05 in /  1017.5 hPa Calm     90 % 0.00 in /  0 mm
11:35 39.4 °F /  4.1 °C 37.0 °F /  2.8 °C 30.06 in /  1017.8 hPa Calm     91 % 0.00 in /  0 mm
11:40 39.4 °F /  4.1 °C 37.2 °F /  2.9 °C 30.06 in /  1017.8 hPa Calm     92 % 0.00 in /  0 mm
11:45 39.4 °F /  4.1 °C 37.2 °F /  2.9 °C 30.06 in /  1017.8 hPa Calm     92 % 0.00 in /  0 mm
11:50 39.4 °F /  4.1 °C 37.0 °F /  2.8 °C 30.06 in /  1017.8 hPa Calm     91 % 0.00 in /  0 mm
11:55 39.6 °F /  4.2 °C 37.4 °F /  3 °C 30.06 in /  1017.8 hPa Calm     92 % 0.00 in /  0 mm
12:01 39.6 °F /  4.2 °C 37.4 °F /  3 °C 30.06 in /  1017.8 hPa Calm     92 % 0.00 in /  0 mm
12:06 39.6 °F /  4.2 °C 37.4 °F /  3 °C 30.06 in /  1017.8 hPa Calm     92 % 0.00 in /  0 mm
12:11 39.6 °F /  4.2 °C 37.4 °F /  3 °C 30.06 in /  1017.8 hPa Calm     92 % 0.00 in /  0 mm
12:16 39.4 °F /  4.1 °C 37.2 °F /  2.9 °C 30.06 in /  1017.8 hPa Calm     92 % 0.00 in /  0 mm
12:21 39.4 °F /  4.1 °C 37.2 °F /  2.9 °C 30.07 in /  1018.2 hPa Calm     92 % 0.00 in /  0 mm
12:26 39.6 °F /  4.2 °C 37.4 °F /  3 °C 30.07 in /  1018.2 hPa Calm     92 % 0.00 in /  0 mm
12:31 39.6 °F /  4.2 °C 37.4 °F /  3 °C 30.07 in /  1018.2 hPa Calm     92 % 0.00 in /  0 mm
12:36 39.6 °F /  4.2 °C 37.2 °F /  2.9 °C 30.07 in /  1018.2 hPa SW 1.8 mph /  2.9 km/h   91 % 0.00 in /  0 mm
12:41 39.6 °F /  4.2 °C 37.2 °F /  2.9 °C 30.07 in /  1018.2 hPa Calm     91 % 0.00 in /  0 mm
12:46 39.6 °F /  4.2 °C 37.4 °F /  3 °C 30.07 in /  1018.2 hPa North 2.3 mph /  3.7 km/h   92 % 0.00 in /  0 mm
12:51 39.6 °F /  4.2 °C 36.9 °F /  2.7 °C 30.07 in /  1018.2 hPa NE 3.5 mph /  5.6 km/h   90 % 0.00 in /  0 mm
12:56 39.6 °F /  4.2 °C 37.2 °F /  2.9 °C 30.07 in /  1018.2 hPa Calm     91 % 0.00 in /  0 mm
13:01 39.6 °F /  4.2 °C 37.2 °F /  2.9 °C 30.07 in /  1018.2 hPa Calm     91 % 0.01 in /  0.25 mm
13:07 39.4 °F /  4.1 °C 37.2 °F /  2.9 °C 30.07 in /  1018.2 hPa Calm     92 % 0.01 in /  0.25 mm
13:12 39.2 °F /  4 °C 37.1 °F /  2.8 °C 30.07 in /  1018.2 hPa SW 1.2 mph /  1.9 km/h   92 % 0.01 in /  0.25 mm
13:16 39.2 °F /  4 °C 37.1 °F /  2.8 °C 30.07 in /  1018.2 hPa Calm     92 % 0.01 in /  0.25 mm
13:21 39.2 °F /  4 °C 36.8 °F /  2.7 °C 30.07 in /  1018.2 hPa SW 2.3 mph /  3.7 km/h   91 % 0.01 in /  0.25 mm
13:26 39.0 °F /  3.9 °C 36.9 °F /  2.7 °C 30.07 in /  1018.2 hPa Calm     92 % 0.02 in /  0.51 mm
13:31 39.0 °F /  3.9 °C 36.9 °F /  2.7 °C 30.07 in /  1018.2 hPa Calm     92 % 0.02 in /  0.51 mm
13:36 39.0 °F /  3.9 °C 36.9 °F /  2.7 °C 30.08 in /  1018.5 hPa Calm     92 % 0.02 in /  0.51 mm
13:41 39.2 °F /  4 °C 37.1 °F /  2.8 °C 30.08 in /  1018.5 hPa Calm     92 % 0.02 in /  0.51 mm
13:46 39.2 °F /  4 °C 37.1 °F /  2.8 °C 30.08 in /  1018.5 hPa Calm     92 % 0.02 in /  0.51 mm
13:51 39.4 °F /  4.1 °C 37.2 °F /  2.9 °C 30.08 in /  1018.5 hPa Calm     92 % 0.02 in /  0.51 mm
13:56 39.4 °F /  4.1 °C 37.2 °F /  2.9 °C 30.08 in /  1018.5 hPa Calm     92 % 0.02 in /  0.51 mm
14:01 39.4 °F /  4.1 °C 37.2 °F /  2.9 °C 30.08 in /  1018.5 hPa North 2.3 mph /  3.7 km/h   92 % 0.01 in /  0.25 mm
14:07 39.4 °F /  4.1 °C 37.2 °F /  2.9 °C 30.08 in /  1018.5 hPa NNE 2.3 mph /  3.7 km/h   92 % 0.02 in /  0.51 mm
14:12 39.4 °F /  4.1 °C 37.2 °F /  2.9 °C 30.08 in /  1018.5 hPa Calm     92 % 0.02 in /  0.51 mm
14:17 39.4 °F /  4.1 °C 37.0 °F /  2.8 °C 30.09 in /  1018.8 hPa North 3.5 mph /  5.6 km/h   91 % 0.02 in /  0.51 mm
14:22 39.4 °F /  4.1 °C 37.0 °F /  2.8 °C 30.09 in /  1018.8 hPa Calm     91 % 0.02 in /  0.51 mm
14:27 39.4 °F /  4.1 °C 37.2 °F /  2.9 °C 30.09 in /  1018.8 hPa WSW 2.3 mph /  3.7 km/h   92 % 0.01 in /  0.25 mm
14:32 39.6 °F /  4.2 °C 37.4 °F /  3 °C 30.09 in /  1018.8 hPa Calm     92 % 0.01 in /  0.25 mm
14:37 39.7 °F /  4.3 °C 37.9 °F /  3.3 °C 30.09 in /  1018.8 hPa Calm     93 % 0.01 in /  0.25 mm
14:42 39.7 °F /  4.3 °C 37.6 °F /  3.1 °C 30.09 in /  1018.8 hPa North 3.1 mph /  5 km/h   92 % 0.01 in /  0.25 mm
14:47 39.7 °F /  4.3 °C 36.8 °F /  2.7 °C 30.10 in /  1019.2 hPa NW 5.8 mph /  9.3 km/h   89 % 0.01 in /  0.25 mm
14:52 39.7 °F /  4.3 °C 37.0 °F /  2.8 °C 30.10 in /  1019.2 hPa NNW 1.2 mph /  1.9 km/h   90 % 0.01 in /  0.25 mm
14:57 39.7 °F /  4.3 °C 37.3 °F /  2.9 °C 30.10 in /  1019.2 hPa Calm     91 % 0.01 in /  0.25 mm
15:02 39.7 °F /  4.3 °C 37.0 °F /  2.8 °C 30.11 in /  1019.5 hPa North 1.2 mph /  1.9 km/h   90 % 0.01 in /  0.25 mm
15:07 39.7 °F /  4.3 °C 36.8 °F /  2.7 °C 30.11 in /  1019.5 hPa North 2.3 mph /  3.7 km/h   89 % 0.00 in /  0 mm
15:12 39.7 °F /  4.3 °C 36.5 °F /  2.5 °C 30.11 in /  1019.5 hPa NW 4.6 mph /  7.4 km/h   88 % 0.00 in /  0 mm
15:17 39.7 °F /  4.3 °C 36.8 °F /  2.7 °C 30.11 in /  1019.5 hPa North 2.3 mph /  3.7 km/h 2.3 mph /  3.7 km/h 89 % 0.00 in /  0 mm
15:23 39.7 °F /  4.3 °C 36.5 °F /  2.5 °C 30.11 in /  1019.5 hPa NNE 3.6 mph /  5.8 km/h 3.6 mph /  5.8 km/h 88 % 0.00 in /  0 mm
15:28 39.7 °F /  4.3 °C 36.5 °F /  2.5 °C 30.11 in /  1019.5 hPa SSW 1.2 mph /  1.9 km/h 1.8 mph /  2.9 km/h 88 % 0.00 in /  0 mm
15:33 39.7 °F /  4.3 °C 36.5 °F /  2.5 °C 30.12 in /  1019.9 hPa NNE 2.3 mph /  3.7 km/h 2.3 mph /  3.7 km/h 88 % 0.00 in /  0 mm
15:38 39.7 °F /  4.3 °C 36.5 °F /  2.5 °C 30.12 in /  1019.9 hPa North 2.4 mph /  3.9 km/h   88 % 0.00 in /  0 mm
15:43 39.7 °F /  4.3 °C 36.8 °F /  2.7 °C 30.12 in /  1019.9 hPa Calm     89 % 0.00 in /  0 mm
15:48 39.7 °F /  4.3 °C 36.8 °F /  2.7 °C 30.12 in /  1019.9 hPa Calm     89 % 0.00 in /  0 mm
15:53 39.7 °F /  4.3 °C 36.2 °F /  2.3 °C 30.12 in /  1019.9 hPa Calm     87 % 0.00 in /  0 mm
15:58 39.7 °F /  4.3 °C 36.2 °F /  2.3 °C 30.12 in /  1019.9 hPa Calm     87 % 0.00 in /  0 mm
16:03 39.7 °F /  4.3 °C 36.2 °F /  2.3 °C 30.13 in /  1020.2 hPa NNW 2.3 mph /  3.7 km/h   87 % 0.00 in /  0 mm
16:08 39.7 °F /  4.3 °C 36.8 °F /  2.7 °C 30.13 in /  1020.2 hPa Calm     89 % 0.00 in /  0 mm
16:13 39.7 °F /  4.3 °C 36.2 °F /  2.3 °C 30.13 in /  1020.2 hPa Calm     87 % 0.00 in /  0 mm
16:18 39.7 °F /  4.3 °C 36.5 °F /  2.5 °C 30.13 in /  1020.2 hPa Calm     88 % 0.00 in /  0 mm
16:23 39.7 °F /  4.3 °C 36.5 °F /  2.5 °C 30.13 in /  1020.2 hPa Calm     88 % 0.00 in /  0 mm
16:28 39.7 °F /  4.3 °C 36.5 °F /  2.5 °C 30.13 in /  1020.2 hPa Calm     88 % 0.00 in /  0 mm
16:33 39.7 °F /  4.3 °C 36.5 °F /  2.5 °C 30.14 in /  1020.5 hPa Calm     88 % 0.00 in /  0 mm
16:39 39.7 °F /  4.3 °C 36.5 °F /  2.5 °C 30.14 in /  1020.5 hPa NNE 2.0 mph /  3.2 km/h   88 % 0.00 in /  0 mm
16:44 39.7 °F /  4.3 °C 36.5 °F /  2.5 °C 30.14 in /  1020.5 hPa Calm     88 % 0.00 in /  0 mm
16:49 39.6 °F /  4.2 °C 36.3 °F /  2.4 °C 30.14 in /  1020.5 hPa Calm     88 % 0.00 in /  0 mm
16:54 39.6 °F /  4.2 °C 36.3 °F /  2.4 °C 30.14 in /  1020.5 hPa Calm     88 % 0.00 in /  0 mm
16:59 39.6 °F /  4.2 °C 36.3 °F /  2.4 °C 30.14 in /  1020.5 hPa Calm     88 % 0.00 in /  0 mm
17:04 39.6 °F /  4.2 °C 36.6 °F /  2.6 °C 30.14 in /  1020.5 hPa Calm     89 % 0.00 in /  0 mm
17:09 39.6 °F /  4.2 °C 36.3 °F /  2.4 °C 30.14 in /  1020.5 hPa Calm     88 % 0.00 in /  0 mm
17:14 39.6 °F /  4.2 °C 36.3 °F /  2.4 °C 30.14 in /  1020.5 hPa Calm     88 % 0.00 in /  0 mm
17:19 39.4 °F /  4.1 °C 36.1 °F /  2.3 °C 30.14 in /  1020.5 hPa Calm     88 % 0.00 in /  0 mm
17:24 39.4 °F /  4.1 °C 36.1 °F /  2.3 °C 30.14 in /  1020.5 hPa Calm     88 % 0.00 in /  0 mm
17:29 39.4 °F /  4.1 °C 36.1 °F /  2.3 °C 30.14 in /  1020.5 hPa Calm     88 % 0.00 in /  0 mm
17:34 39.2 °F /  4 °C 36.2 °F /  2.3 °C 30.14 in /  1020.5 hPa Calm     89 % 0.00 in /  0 mm
17:39 39.0 °F /  3.9 °C 36.1 °F /  2.3 °C 30.14 in /  1020.5 hPa Calm     89 % 0.00 in /  0 mm
17:44 38.8 °F /  3.8 °C 35.9 °F /  2.2 °C 30.14 in /  1020.5 hPa Calm     89 % 0.00 in /  0 mm
17:49 38.7 °F /  3.7 °C 35.7 °F /  2.1 °C 30.15 in /  1020.9 hPa Calm     89 % 0.00 in /  0 mm
17:54 38.5 °F /  3.6 °C 35.5 °F /  1.9 °C 30.15 in /  1020.9 hPa Calm     89 % 0.00 in /  0 mm
17:59 38.1 °F /  3.4 °C 35.2 °F /  1.8 °C 30.15 in /  1020.9 hPa Calm     89 % 0.00 in /  0 mm
18:04 38.1 °F /  3.4 °C 35.4 °F /  1.9 °C 30.16 in /  1021.2 hPa Calm     90 % 0.00 in /  0 mm
18:10 37.9 °F /  3.3 °C 35.3 °F /  1.8 °C 30.16 in /  1021.2 hPa Calm     90 % 0.00 in /  0 mm
18:15 37.8 °F /  3.2 °C 35.4 °F /  1.9 °C 30.16 in /  1021.2 hPa Calm     91 % 0.00 in /  0 mm
18:20 37.8 °F /  3.2 °C 35.4 °F /  1.9 °C 30.17 in /  1021.6 hPa Calm     91 % 0.00 in /  0 mm
18:25 37.6 °F /  3.1 °C 35.2 °F /  1.8 °C 30.17 in /  1021.6 hPa Calm     91 % 0.00 in /  0 mm
18:30 37.6 °F /  3.1 °C 35.2 °F /  1.8 °C 30.17 in /  1021.6 hPa Calm     91 % 0.00 in /  0 mm
18:35 37.4 °F /  3 °C 35.0 °F /  1.7 °C 30.17 in /  1021.6 hPa Calm     91 % 0.00 in /  0 mm
18:40 37.4 °F /  3 °C 35.0 °F /  1.7 °C 30.17 in /  1021.6 hPa Calm     91 % 0.00 in /  0 mm
18:45 37.2 °F /  2.9 °C 35.1 °F /  1.7 °C 30.17 in /  1021.6 hPa Calm     92 % 0.00 in /  0 mm
18:50 37.2 °F /  2.9 °C 35.1 °F /  1.7 °C 30.19 in /  1022.2 hPa Calm     92 % 0.00 in /  0 mm
18:55 37.2 °F /  2.9 °C 35.1 °F /  1.7 °C 30.19 in /  1022.2 hPa Calm     92 % 0.00 in /  0 mm
19:00 37.2 °F /  2.9 °C 35.1 °F /  1.7 °C 30.19 in /  1022.2 hPa Calm     92 % 0.00 in /  0 mm
19:05 37.2 °F /  2.9 °C 35.1 °F /  1.7 °C 30.19 in /  1022.2 hPa Calm     92 % 0.00 in /  0 mm
19:10 37.2 °F /  2.9 °C 35.1 °F /  1.7 °C 30.19 in /  1022.2 hPa Calm     92 % 0.00 in /  0 mm
19:15 37.2 °F /  2.9 °C 35.1 °F /  1.7 °C 30.19 in /  1022.2 hPa Calm     92 % 0.00 in /  0 mm
19:20 37.2 °F /  2.9 °C 35.1 °F /  1.7 °C 30.20 in /  1022.6 hPa Calm     92 % 0.00 in /  0 mm
19:25 37.2 °F /  2.9 °C 35.1 °F /  1.7 °C 30.20 in /  1022.6 hPa Calm     92 % 0.00 in /  0 mm
19:31 37.2 °F /  2.9 °C 35.4 °F /  1.9 °C 30.20 in /  1022.6 hPa Calm     93 % 0.00 in /  0 mm
19:36 37.2 °F /  2.9 °C 35.4 °F /  1.9 °C 30.20 in /  1022.6 hPa Calm     93 % 0.00 in /  0 mm
19:41 37.2 °F /  2.9 °C 35.1 °F /  1.7 °C 30.20 in /  1022.6 hPa Calm     92 % 0.00 in /  0 mm
19:46 37.2 °F /  2.9 °C 35.4 °F /  1.9 °C 30.20 in /  1022.6 hPa Calm     93 % 0.00 in /  0 mm
19:51 37.2 °F /  2.9 °C 35.4 °F /  1.9 °C 30.20 in /  1022.6 hPa Calm     93 % 0.00 in /  0 mm
19:56 37.2 °F /  2.9 °C 35.4 °F /  1.9 °C 30.20 in /  1022.6 hPa Calm     93 % 0.00 in /  0 mm
20:01 37.0 °F /  2.8 °C 34.9 °F /  1.6 °C 30.20 in /  1022.6 hPa Calm     92 % 0.00 in /  0 mm
20:06 37.0 °F /  2.8 °C 34.9 °F /  1.6 °C 30.21 in /  1022.9 hPa Calm     92 % 0.00 in /  0 mm
20:11 37.0 °F /  2.8 °C 35.2 °F /  1.8 °C 30.21 in /  1022.9 hPa Calm     93 % 0.00 in /  0 mm
20:16 37.0 °F /  2.8 °C 35.2 °F /  1.8 °C 30.21 in /  1022.9 hPa Calm     93 % 0.00 in /  0 mm
20:21 37.0 °F /  2.8 °C 35.2 °F /  1.8 °C 30.22 in /  1023.2 hPa Calm     93 % 0.00 in /  0 mm
20:26 36.9 °F /  2.7 °C 35.0 °F /  1.7 °C 30.22 in /  1023.2 hPa Calm     93 % 0.00 in /  0 mm
20:31 36.9 °F /  2.7 °C 35.0 °F /  1.7 °C 30.22 in /  1023.2 hPa Calm     93 % 0.00 in /  0 mm
20:36 36.9 °F /  2.7 °C 35.0 °F /  1.7 °C 30.22 in /  1023.2 hPa Calm     93 % 0.00 in /  0 mm
20:41 36.9 °F /  2.7 °C 35.0 °F /  1.7 °C 30.22 in /  1023.2 hPa Calm     93 % 0.00 in /  0 mm
20:46 36.9 °F /  2.7 °C 35.0 °F /  1.7 °C 30.22 in /  1023.2 hPa Calm     93 % 0.00 in /  0 mm
20:51 37.0 °F /  2.8 °C 35.2 °F /  1.8 °C 30.23 in /  1023.6 hPa Calm     93 % 0.00 in /  0 mm
20:57 37.0 °F /  2.8 °C 35.2 °F /  1.8 °C 30.23 in /  1023.6 hPa Calm     93 % 0.00 in /  0 mm
21:02 37.0 °F /  2.8 °C 35.2 °F /  1.8 °C 30.23 in /  1023.6 hPa Calm     93 % 0.00 in /  0 mm
21:07 37.0 °F /  2.8 °C 35.2 °F /  1.8 °C 30.23 in /  1023.6 hPa Calm     93 % 0.00 in /  0 mm
21:12 37.0 °F /  2.8 °C 35.2 °F /  1.8 °C 30.23 in /  1023.6 hPa Calm     93 % 0.00 in /  0 mm
21:17 37.0 °F /  2.8 °C 35.2 °F /  1.8 °C 30.23 in /  1023.6 hPa Calm     93 % 0.00 in /  0 mm
21:22 36.9 °F /  2.7 °C 35.0 °F /  1.7 °C 30.23 in /  1023.6 hPa Calm     93 % 0.00 in /  0 mm
21:27 37.0 °F /  2.8 °C 35.2 °F /  1.8 °C 30.23 in /  1023.6 hPa Calm     93 % 0.00 in /  0 mm
21:32 37.0 °F /  2.8 °C 35.2 °F /  1.8 °C 30.24 in /  1023.9 hPa Calm     93 % 0.00 in /  0 mm
21:37 37.0 °F /  2.8 °C 35.2 °F /  1.8 °C 30.24 in /  1023.9 hPa Calm     93 % 0.00 in /  0 mm
21:42 37.0 °F /  2.8 °C 35.2 °F /  1.8 °C 30.24 in /  1023.9 hPa Calm     93 % 0.00 in /  0 mm
21:47 37.0 °F /  2.8 °C 35.2 °F /  1.8 °C 30.24 in /  1023.9 hPa Calm     93 % 0.00 in /  0 mm
21:52 37.0 °F /  2.8 °C 35.2 °F /  1.8 °C 30.24 in /  1023.9 hPa Calm     93 % 0.00 in /  0 mm
21:57 37.0 °F /  2.8 °C 35.2 °F /  1.8 °C 30.24 in /  1023.9 hPa Calm     93 % 0.00 in /  0 mm
22:02 37.0 °F /  2.8 °C 35.2 °F /  1.8 °C 30.24 in /  1023.9 hPa Calm     93 % 0.00 in /  0 mm
22:07 37.0 °F /  2.8 °C 35.2 °F /  1.8 °C 30.24 in /  1023.9 hPa Calm     93 % 0.00 in /  0 mm
22:12 37.0 °F /  2.8 °C 35.2 °F /  1.8 °C 30.24 in /  1023.9 hPa Calm     93 % 0.00 in /  0 mm
22:17 37.0 °F /  2.8 °C 35.2 °F /  1.8 °C 30.25 in /  1024.3 hPa Calm     93 % 0.00 in /  0 mm
22:23 37.0 °F /  2.8 °C 35.2 °F /  1.8 °C 30.25 in /  1024.3 hPa Calm     93 % 0.00 in /  0 mm
22:28 37.0 °F /  2.8 °C 35.2 °F /  1.8 °C 30.25 in /  1024.3 hPa Calm     93 % 0.00 in /  0 mm
22:33 36.9 °F /  2.7 °C 35.0 °F /  1.7 °C 30.24 in /  1023.9 hPa Calm     93 % 0.00 in /  0 mm
22:38 36.9 °F /  2.7 °C 35.0 °F /  1.7 °C 30.24 in /  1023.9 hPa Calm     93 % 0.00 in /  0 mm
22:43 36.9 °F /  2.7 °C 35.0 °F /  1.7 °C 30.24 in /  1023.9 hPa Calm     93 % 0.00 in /  0 mm
22:48 36.9 °F /  2.7 °C 35.0 °F /  1.7 °C 30.25 in /  1024.3 hPa Calm     93 % 0.00 in /  0 mm
22:53 36.7 °F /  2.6 °C 34.8 °F /  1.6 °C 30.25 in /  1024.3 hPa Calm     93 % 0.00 in /  0 mm
22:58 36.7 °F /  2.6 °C 34.8 °F /  1.6 °C 30.25 in /  1024.3 hPa Calm     93 % 0.00 in /  0 mm
23:03 36.7 °F /  2.6 °C 34.8 °F /  1.6 °C 30.25 in /  1024.3 hPa Calm     93 % 0.00 in /  0 mm
23:08 36.9 °F /  2.7 °C 35.0 °F /  1.7 °C 30.25 in /  1024.3 hPa Calm     93 % 0.00 in /  0 mm
23:13 36.9 °F /  2.7 °C 35.0 °F /  1.7 °C 30.25 in /  1024.3 hPa Calm     93 % 0.00 in /  0 mm
23:18 36.9 °F /  2.7 °C 35.0 °F /  1.7 °C 30.25 in /  1024.3 hPa Calm     93 % 0.00 in /  0 mm
23:23 36.9 °F /  2.7 °C 35.0 °F /  1.7 °C 30.25 in /  1024.3 hPa Calm     93 % 0.00 in /  0 mm
23:28 36.9 °F /  2.7 °C 35.0 °F /  1.7 °C 30.25 in /  1024.3 hPa Calm     93 % 0.00 in /  0 mm
23:33 36.9 °F /  2.7 °C 35.0 °F /  1.7 °C 30.26 in /  1024.6 hPa Calm     93 % 0.00 in /  0 mm
23:38 36.9 °F /  2.7 °C 35.0 °F /  1.7 °C 30.26 in /  1024.6 hPa Calm     93 % 0.00 in /  0 mm
23:44 36.9 °F /  2.7 °C 35.0 °F /  1.7 °C 30.26 in /  1024.6 hPa Calm     93 % 0.00 in /  0 mm
23:49 36.9 °F /  2.7 °C 35.0 °F /  1.7 °C 30.26 in /  1024.6 hPa Calm     93 % 0.00 in /  0 mm
23:54 36.9 °F /  2.7 °C 35.0 °F /  1.7 °C 30.26 in /  1024.6 hPa Calm     93 % 0.00 in /  0 mm
23:59 36.9 °F /  2.7 °C 35.0 °F /  1.7 °C 30.26 in /  1024.6 hPa Calm     93 % 0.00 in /  0 mm
Compliments of Weather Underground - 2 mb